sensor_id;sensor_type;location;lat;lon;timestamp;P1;durP1;ratioP1;P2;durP2;ratioP2
36405;SDS011;22438;42.670;23.288;2023-02-15T00:02:12;54.03;;;27.25;;
36405;SDS011;22438;42.670;23.288;2023-02-15T00:05:32;45.65;;;24.30;;
36405;SDS011;22438;42.670;23.288;2023-02-15T00:08:53;52.47;;;26.25;;
36405;SDS011;22438;42.670;23.288;2023-02-15T00:12:15;48.15;;;24.73;;
36405;SDS011;22438;42.670;23.288;2023-02-15T00:15:36;48.30;;;24.83;;
36405;SDS011;22438;42.670;23.288;2023-02-15T00:18:57;51.13;;;26.08;;
36405;SDS011;22438;42.670;23.288;2023-02-15T00:22:17;47.15;;;24.45;;
36405;SDS011;22438;42.670;23.288;2023-02-15T00:25:38;56.75;;;26.90;;
36405;SDS011;22438;42.670;23.288;2023-02-15T00:28:59;51.10;;;26.33;;
36405;SDS011;22438;42.670;23.288;2023-02-15T00:32:20;52.45;;;25.05;;
36405;SDS011;22438;42.670;23.288;2023-02-15T00:35:40;49.83;;;26.25;;
36405;SDS011;22438;42.670;23.288;2023-02-15T00:39:01;48.90;;;25.13;;
36405;SDS011;22438;42.670;23.288;2023-02-15T00:42:23;46.35;;;24.73;;
36405;SDS011;22438;42.670;23.288;2023-02-15T00:45:44;43.40;;;23.48;;
36405;SDS011;22438;42.670;23.288;2023-02-15T00:49:05;49.60;;;25.33;;
36405;SDS011;22438;42.670;23.288;2023-02-15T00:52:26;48.13;;;24.30;;
36405;SDS011;22438;42.670;23.288;2023-02-15T00:55:47;48.60;;;24.92;;
36405;SDS011;22438;42.670;23.288;2023-02-15T00:59:08;48.15;;;23.67;;
36405;SDS011;22438;42.670;23.288;2023-02-15T01:02:29;47.10;;;23.73;;
36405;SDS011;22438;42.670;23.288;2023-02-15T01:05:50;47.00;;;24.90;;
36405;SDS011;22438;42.670;23.288;2023-02-15T01:09:10;44.15;;;23.83;;
36405;SDS011;22438;42.670;23.288;2023-02-15T01:12:32;46.50;;;23.80;;
36405;SDS011;22438;42.670;23.288;2023-02-15T01:15:54;44.47;;;23.17;;
36405;SDS011;22438;42.670;23.288;2023-02-15T01:19:15;47.88;;;25.05;;
36405;SDS011;22438;42.670;23.288;2023-02-15T01:22:36;48.85;;;24.75;;
36405;SDS011;22438;42.670;23.288;2023-02-15T01:26:00;45.70;;;23.27;;
36405;SDS011;22438;42.670;23.288;2023-02-15T01:29:22;41.67;;;22.05;;
36405;SDS011;22438;42.670;23.288;2023-02-15T01:32:43;49.40;;;24.33;;
36405;SDS011;22438;42.670;23.288;2023-02-15T01:36:03;47.35;;;23.75;;
36405;SDS011;22438;42.670;23.288;2023-02-15T01:39:24;47.42;;;24.00;;
36405;SDS011;22438;42.670;23.288;2023-02-15T01:42:49;45.35;;;23.33;;
36405;SDS011;22438;42.670;23.288;2023-02-15T01:46:11;42.33;;;22.70;;
36405;SDS011;22438;42.670;23.288;2023-02-15T01:49:33;48.88;;;23.38;;
36405;SDS011;22438;42.670;23.288;2023-02-15T01:52:56;46.08;;;24.60;;
36405;SDS011;22438;42.670;23.288;2023-02-15T01:56:20;45.60;;;23.27;;
36405;SDS011;22438;42.670;23.288;2023-02-15T01:59:43;47.50;;;23.58;;
36405;SDS011;22438;42.670;23.288;2023-02-15T02:03:06;45.17;;;24.05;;
36405;SDS011;22438;42.670;23.288;2023-02-15T02:06:27;44.05;;;23.15;;
36405;SDS011;22438;42.670;23.288;2023-02-15T02:09:48;46.15;;;23.80;;
36405;SDS011;22438;42.670;23.288;2023-02-15T02:13:09;48.33;;;23.13;;
36405;SDS011;22438;42.670;23.288;2023-02-15T02:16:42;45.35;;;23.35;;
36405;SDS011;22438;42.670;23.288;2023-02-15T02:34:45;44.17;;;22.98;;
36405;SDS011;22438;42.670;23.288;2023-02-15T02:45:09;40.28;;;21.63;;
36405;SDS011;22438;42.670;23.288;2023-02-15T02:48:34;44.20;;;23.02;;
36405;SDS011;22438;42.670;23.288;2023-02-15T02:51:59;38.92;;;19.27;;
36405;SDS011;22438;42.670;23.288;2023-02-15T02:59:13;44.45;;;22.23;;
36405;SDS011;22438;42.670;23.288;2023-02-15T03:02:41;43.35;;;21.02;;
36405;SDS011;22438;42.670;23.288;2023-02-15T03:06:09;42.08;;;20.45;;
36405;SDS011;22438;42.670;23.288;2023-02-15T03:09:38;39.55;;;20.77;;
36405;SDS011;22438;42.670;23.288;2023-02-15T03:13:02;43.85;;;21.80;;
36405;SDS011;22438;42.670;23.288;2023-02-15T03:16:23;39.58;;;21.20;;
36405;SDS011;22438;42.670;23.288;2023-02-15T03:19:47;42.40;;;21.88;;
36405;SDS011;22438;42.670;23.288;2023-02-15T03:23:10;43.45;;;21.60;;
36405;SDS011;22438;42.670;23.288;2023-02-15T03:26:34;37.58;;;19.63;;
36405;SDS011;22438;42.670;23.288;2023-02-15T03:29:57;42.97;;;21.90;;
36405;SDS011;22438;42.670;23.288;2023-02-15T03:33:19;39.67;;;20.58;;
36405;SDS011;22438;42.670;23.288;2023-02-15T03:40:12;38.58;;;20.50;;
36405;SDS011;22438;42.670;23.288;2023-02-15T03:44:03;37.65;;;19.38;;
36405;SDS011;22438;42.670;23.288;2023-02-15T03:47:27;34.97;;;18.33;;
36405;SDS011;22438;42.670;23.288;2023-02-15T03:50:51;40.30;;;19.83;;
36405;SDS011;22438;42.670;23.288;2023-02-15T03:54:33;42.05;;;21.13;;
36405;SDS011;22438;42.670;23.288;2023-02-15T03:58:03;38.10;;;19.67;;
36405;SDS011;22438;42.670;23.288;2023-02-15T04:01:48;41.30;;;20.47;;
36405;SDS011;22438;42.670;23.288;2023-02-15T04:05:19;40.10;;;20.00;;
36405;SDS011;22438;42.670;23.288;2023-02-15T04:08:40;38.28;;;20.65;;
36405;SDS011;22438;42.670;23.288;2023-02-15T04:12:19;38.30;;;19.45;;
36405;SDS011;22438;42.670;23.288;2023-02-15T04:15:40;40.88;;;20.92;;
36405;SDS011;22438;42.670;23.288;2023-02-15T04:19:20;40.75;;;20.98;;
36405;SDS011;22438;42.670;23.288;2023-02-15T04:22:59;43.10;;;21.17;;
36405;SDS011;22438;42.670;23.288;2023-02-15T04:26:38;41.38;;;22.20;;
36405;SDS011;22438;42.670;23.288;2023-02-15T04:29:59;41.70;;;21.30;;
36405;SDS011;22438;42.670;23.288;2023-02-15T04:33:20;38.50;;;19.58;;
36405;SDS011;22438;42.670;23.288;2023-02-15T04:36:40;41.33;;;22.25;;
36405;SDS011;22438;42.670;23.288;2023-02-15T04:40:02;38.65;;;21.30;;
36405;SDS011;22438;42.670;23.288;2023-02-15T04:43:23;42.22;;;21.63;;
36405;SDS011;22438;42.670;23.288;2023-02-15T04:46:44;42.28;;;22.95;;
36405;SDS011;22438;42.670;23.288;2023-02-15T04:50:05;40.28;;;21.10;;
36405;SDS011;22438;42.670;23.288;2023-02-15T04:53:26;38.33;;;20.67;;
36405;SDS011;22438;42.670;23.288;2023-02-15T04:56:47;39.25;;;21.20;;
36405;SDS011;22438;42.670;23.288;2023-02-15T05:00:07;42.17;;;20.90;;
36405;SDS011;22438;42.670;23.288;2023-02-15T05:03:29;43.80;;;21.85;;
36405;SDS011;22438;42.670;23.288;2023-02-15T05:06:50;39.88;;;20.52;;
36405;SDS011;22438;42.670;23.288;2023-02-15T05:10:10;42.40;;;22.75;;
36405;SDS011;22438;42.670;23.288;2023-02-15T05:13:31;40.88;;;21.25;;
36405;SDS011;22438;42.670;23.288;2023-02-15T05:16:52;41.50;;;21.25;;
36405;SDS011;22438;42.670;23.288;2023-02-15T05:20:14;43.67;;;21.85;;
36405;SDS011;22438;42.670;23.288;2023-02-15T05:23:34;38.92;;;21.48;;
36405;SDS011;22438;42.670;23.288;2023-02-15T05:26:55;40.20;;;20.90;;
36405;SDS011;22438;42.670;23.288;2023-02-15T05:30:34;38.50;;;20.55;;
36405;SDS011;22438;42.670;23.288;2023-02-15T05:33:56;39.92;;;21.70;;
36405;SDS011;22438;42.670;23.288;2023-02-15T05:37:16;43.78;;;21.55;;
36405;SDS011;22438;42.670;23.288;2023-02-15T05:40:37;41.45;;;22.38;;
36405;SDS011;22438;42.670;23.288;2023-02-15T05:43:58;39.88;;;20.30;;
36405;SDS011;22438;42.670;23.288;2023-02-15T05:47:18;39.67;;;20.75;;
36405;SDS011;22438;42.670;23.288;2023-02-15T05:50:39;41.92;;;22.60;;
36405;SDS011;22438;42.670;23.288;2023-02-15T05:54:00;39.45;;;19.95;;
36405;SDS011;22438;42.670;23.288;2023-02-15T05:57:20;40.55;;;20.25;;
36405;SDS011;22438;42.670;23.288;2023-02-15T06:00:41;40.45;;;21.77;;
36405;SDS011;22438;42.670;23.288;2023-02-15T06:07:44;38.05;;;20.02;;
36405;SDS011;22438;42.670;23.288;2023-02-15T06:11:05;40.22;;;20.98;;
36405;SDS011;22438;42.670;23.288;2023-02-15T06:14:26;38.65;;;19.25;;
36405;SDS011;22438;42.670;23.288;2023-02-15T06:17:47;40.30;;;19.55;;
36405;SDS011;22438;42.670;23.288;2023-02-15T06:21:07;41.40;;;21.52;;
36405;SDS011;22438;42.670;23.288;2023-02-15T06:24:28;46.38;;;21.92;;
36405;SDS011;22438;42.670;23.288;2023-02-15T06:27:49;42.25;;;20.73;;
36405;SDS011;22438;42.670;23.288;2023-02-15T06:31:10;39.38;;;19.85;;
36405;SDS011;22438;42.670;23.288;2023-02-15T06:34:30;40.92;;;20.48;;
36405;SDS011;22438;42.670;23.288;2023-02-15T06:37:51;35.58;;;18.98;;
36405;SDS011;22438;42.670;23.288;2023-02-15T06:41:12;39.20;;;19.77;;
36405;SDS011;22438;42.670;23.288;2023-02-15T06:44:33;37.80;;;20.20;;
36405;SDS011;22438;42.670;23.288;2023-02-15T06:47:53;36.70;;;19.80;;
36405;SDS011;22438;42.670;23.288;2023-02-15T06:51:14;38.30;;;19.10;;
36405;SDS011;22438;42.670;23.288;2023-02-15T06:54:35;46.38;;;21.60;;
36405;SDS011;22438;42.670;23.288;2023-02-15T06:57:55;37.47;;;18.90;;
36405;SDS011;22438;42.670;23.288;2023-02-15T07:01:16;36.78;;;19.05;;
36405;SDS011;22438;42.670;23.288;2023-02-15T07:04:37;34.90;;;19.27;;
36405;SDS011;22438;42.670;23.288;2023-02-15T07:07:58;34.28;;;17.40;;
36405;SDS011;22438;42.670;23.288;2023-02-15T07:11:19;30.90;;;16.75;;
36405;SDS011;22438;42.670;23.288;2023-02-15T07:14:58;33.87;;;16.50;;
36405;SDS011;22438;42.670;23.288;2023-02-15T07:18:20;31.08;;;16.58;;
36405;SDS011;22438;42.670;23.288;2023-02-15T07:21:40;30.70;;;15.32;;
36405;SDS011;22438;42.670;23.288;2023-02-15T07:25:02;32.78;;;16.95;;
36405;SDS011;22438;42.670;23.288;2023-02-15T07:28:23;31.52;;;16.60;;
36405;SDS011;22438;42.670;23.288;2023-02-15T07:31:44;30.48;;;15.65;;
36405;SDS011;22438;42.670;23.288;2023-02-15T07:35:05;31.90;;;17.48;;
36405;SDS011;22438;42.670;23.288;2023-02-15T07:38:26;26.05;;;14.18;;
36405;SDS011;22438;42.670;23.288;2023-02-15T07:41:49;28.77;;;15.57;;
36405;SDS011;22438;42.670;23.288;2023-02-15T07:45:10;29.55;;;14.50;;
36405;SDS011;22438;42.670;23.288;2023-02-15T07:48:31;31.95;;;16.90;;
36405;SDS011;22438;42.670;23.288;2023-02-15T07:51:52;30.10;;;15.90;;
36405;SDS011;22438;42.670;23.288;2023-02-15T07:55:13;30.63;;;16.90;;
36405;SDS011;22438;42.670;23.288;2023-02-15T07:58:34;30.92;;;16.80;;
36405;SDS011;22438;42.670;23.288;2023-02-15T08:02:14;29.05;;;15.48;;
36405;SDS011;22438;42.670;23.288;2023-02-15T08:05:34;29.55;;;17.23;;
36405;SDS011;22438;42.670;23.288;2023-02-15T08:08:55;34.00;;;18.30;;
36405;SDS011;22438;42.670;23.288;2023-02-15T08:12:16;29.48;;;16.08;;
36405;SDS011;22438;42.670;23.288;2023-02-15T08:15:37;33.00;;;16.90;;
36405;SDS011;22438;42.670;23.288;2023-02-15T08:18:58;31.38;;;15.93;;
36405;SDS011;22438;42.670;23.288;2023-02-15T08:22:24;27.20;;;15.15;;
36405;SDS011;22438;42.670;23.288;2023-02-15T08:25:46;28.35;;;14.13;;
36405;SDS011;22438;42.670;23.288;2023-02-15T08:29:07;28.30;;;15.30;;
36405;SDS011;22438;42.670;23.288;2023-02-15T08:32:28;27.83;;;14.77;;
36405;SDS011;22438;42.670;23.288;2023-02-15T08:35:49;28.45;;;14.85;;
36405;SDS011;22438;42.670;23.288;2023-02-15T08:39:09;31.73;;;16.83;;
36405;SDS011;22438;42.670;23.288;2023-02-15T08:42:32;30.33;;;15.38;;
36405;SDS011;22438;42.670;23.288;2023-02-15T08:45:53;27.30;;;14.63;;
36405;SDS011;22438;42.670;23.288;2023-02-15T08:49:18;27.63;;;14.43;;
36405;SDS011;22438;42.670;23.288;2023-02-15T08:52:40;28.80;;;14.60;;
36405;SDS011;22438;42.670;23.288;2023-02-15T08:56:00;28.33;;;16.08;;
36405;SDS011;22438;42.670;23.288;2023-02-15T08:59:22;28.73;;;15.45;;
36405;SDS011;22438;42.670;23.288;2023-02-15T09:02:43;29.25;;;16.50;;
36405;SDS011;22438;42.670;23.288;2023-02-15T09:06:04;33.90;;;18.10;;
36405;SDS011;22438;42.670;23.288;2023-02-15T09:09:25;26.27;;;15.20;;
36405;SDS011;22438;42.670;23.288;2023-02-15T09:12:46;31.63;;;16.13;;
36405;SDS011;22438;42.670;23.288;2023-02-15T09:16:07;30.85;;;16.77;;
36405;SDS011;22438;42.670;23.288;2023-02-15T09:19:28;29.23;;;16.27;;
36405;SDS011;22438;42.670;23.288;2023-02-15T09:22:51;26.98;;;16.13;;
36405;SDS011;22438;42.670;23.288;2023-02-15T09:26:13;31.50;;;18.63;;
36405;SDS011;22438;42.670;23.288;2023-02-15T09:29:35;27.23;;;16.83;;
36405;SDS011;22438;42.670;23.288;2023-02-15T09:32:56;32.30;;;18.10;;
36405;SDS011;22438;42.670;23.288;2023-02-15T09:36:17;32.03;;;17.02;;
36405;SDS011;22438;42.670;23.288;2023-02-15T09:39:41;29.50;;;16.33;;
36405;SDS011;22438;42.670;23.288;2023-02-15T09:43:24;34.35;;;20.38;;
36405;SDS011;22438;42.670;23.288;2023-02-15T19:57:24;35.78;;;17.23;;
36405;SDS011;22438;42.670;23.288;2023-02-15T20:00:45;42.35;;;20.55;;
36405;SDS011;22438;42.670;23.288;2023-02-15T20:04:07;38.83;;;19.95;;
36405;SDS011;22438;42.670;23.288;2023-02-15T20:07:28;36.72;;;18.77;;
36405;SDS011;22438;42.670;23.288;2023-02-15T20:10:48;33.78;;;17.77;;
36405;SDS011;22438;42.670;23.288;2023-02-15T20:14:13;35.25;;;18.67;;
36405;SDS011;22438;42.670;23.288;2023-02-15T20:17:34;36.17;;;19.35;;
36405;SDS011;22438;42.670;23.288;2023-02-15T20:20:54;34.95;;;19.67;;
36405;SDS011;22438;42.670;23.288;2023-02-15T20:24:16;36.15;;;18.75;;
36405;SDS011;22438;42.670;23.288;2023-02-15T20:27:38;36.42;;;19.13;;
36405;SDS011;22438;42.670;23.288;2023-02-15T20:31:01;35.72;;;19.10;;
36405;SDS011;22438;42.670;23.288;2023-02-15T20:34:22;40.75;;;20.92;;
36405;SDS011;22438;42.670;23.288;2023-02-15T20:37:46;37.25;;;18.80;;
36405;SDS011;22438;42.670;23.288;2023-02-15T20:41:14;31.88;;;18.35;;
36405;SDS011;22438;42.670;23.288;2023-02-15T20:44:55;35.15;;;18.70;;
36405;SDS011;22438;42.670;23.288;2023-02-15T20:48:15;38.05;;;19.75;;
36405;SDS011;22438;42.670;23.288;2023-02-15T20:51:36;36.80;;;18.70;;
36405;SDS011;22438;42.670;23.288;2023-02-15T20:54:57;30.77;;;17.15;;
36405;SDS011;22438;42.670;23.288;2023-02-15T21:01:41;30.67;;;16.65;;
36405;SDS011;22438;42.670;23.288;2023-02-15T21:05:04;48.30;;;19.30;;
36405;SDS011;22438;42.670;23.288;2023-02-15T21:12:14;36.47;;;19.25;;
36405;SDS011;22438;42.670;23.288;2023-02-15T21:15:36;35.95;;;19.30;;
36405;SDS011;22438;42.670;23.288;2023-02-15T21:19:00;37.60;;;18.60;;
36405;SDS011;22438;42.670;23.288;2023-02-15T21:22:21;33.83;;;17.52;;
36405;SDS011;22438;42.670;23.288;2023-02-15T21:25:43;35.85;;;19.50;;
36405;SDS011;22438;42.670;23.288;2023-02-15T21:29:03;40.55;;;20.27;;
36405;SDS011;22438;42.670;23.288;2023-02-15T21:32:24;47.05;;;24.88;;
36405;SDS011;22438;42.670;23.288;2023-02-15T21:35:46;56.47;;;28.98;;
36405;SDS011;22438;42.670;23.288;2023-02-15T21:39:41;57.33;;;30.95;;
36405;SDS011;22438;42.670;23.288;2023-02-15T21:42:55;60.28;;;30.95;;
36405;SDS011;22438;42.670;23.288;2023-02-15T21:50:24;62.60;;;33.20;;
36405;SDS011;22438;42.670;23.288;2023-02-15T21:54:03;61.30;;;31.98;;
36405;SDS011;22438;42.670;23.288;2023-02-15T21:57:24;62.90;;;32.10;;
36405;SDS011;22438;42.670;23.288;2023-02-15T22:00:45;66.55;;;34.55;;
36405;SDS011;22438;42.670;23.288;2023-02-15T22:04:10;66.53;;;34.35;;
36405;SDS011;22438;42.670;23.288;2023-02-15T22:07:32;61.45;;;34.85;;
36405;SDS011;22438;42.670;23.288;2023-02-15T22:10:53;70.63;;;36.00;;
36405;SDS011;22438;42.670;23.288;2023-02-15T22:21:15;66.97;;;34.22;;
36405;SDS011;22438;42.670;23.288;2023-02-15T22:24:37;67.03;;;33.88;;
36405;SDS011;22438;42.670;23.288;2023-02-15T22:27:58;78.28;;;37.50;;
36405;SDS011;22438;42.670;23.288;2023-02-15T22:31:19;70.10;;;37.00;;
36405;SDS011;22438;42.670;23.288;2023-02-15T22:34:41;67.90;;;34.55;;
36405;SDS011;22438;42.670;23.288;2023-02-15T22:38:02;66.05;;;34.92;;
36405;SDS011;22438;42.670;23.288;2023-02-15T22:41:24;66.50;;;34.60;;
36405;SDS011;22438;42.670;23.288;2023-02-15T22:44:46;82.97;;;33.92;;
36405;SDS011;22438;42.670;23.288;2023-02-15T22:48:07;74.20;;;35.90;;
36405;SDS011;22438;42.670;23.288;2023-02-15T22:51:29;66.60;;;33.70;;
36405;SDS011;22438;42.670;23.288;2023-02-15T22:54:50;74.45;;;35.30;;
36405;SDS011;22438;42.670;23.288;2023-02-15T22:58:17;64.72;;;33.10;;
36405;SDS011;22438;42.670;23.288;2023-02-15T23:05:01;68.25;;;34.15;;
36405;SDS011;22438;42.670;23.288;2023-02-15T23:08:22;74.53;;;36.60;;
36405;SDS011;22438;42.670;23.288;2023-02-15T23:11:43;70.25;;;35.15;;
36405;SDS011;22438;42.670;23.288;2023-02-15T23:15:08;65.95;;;34.70;;
36405;SDS011;22438;42.670;23.288;2023-02-15T23:21:58;69.93;;;35.85;;
36405;SDS011;22438;42.670;23.288;2023-02-15T23:25:19;68.43;;;36.00;;
36405;SDS011;22438;42.670;23.288;2023-02-15T23:28:44;65.55;;;32.80;;
36405;SDS011;22438;42.670;23.288;2023-02-15T23:32:07;75.07;;;36.25;;
36405;SDS011;22438;42.670;23.288;2023-02-15T23:35:30;72.80;;;35.35;;
36405;SDS011;22438;42.670;23.288;2023-02-15T23:38:52;71.97;;;34.42;;
36405;SDS011;22438;42.670;23.288;2023-02-15T23:42:20;69.20;;;36.22;;
36405;SDS011;22438;42.670;23.288;2023-02-15T23:46:02;97.07;;;45.20;;
36405;SDS011;22438;42.670;23.288;2023-02-15T23:49:24;102.10;;;46.85;;
36405;SDS011;22438;42.670;23.288;2023-02-15T23:52:45;88.10;;;39.72;;
36405;SDS011;22438;42.670;23.288;2023-02-15T23:56:08;81.93;;;37.90;;
36405;SDS011;22438;42.670;23.288;2023-02-15T23:59:33;83.18;;;39.72;;
